createdAt,value
2023-09-04T00:05:13.949Z,302
2023-09-04T00:20:14.016Z,302
2023-09-04T00:35:13.963Z,302
2023-09-04T00:50:13.984Z,302
2023-09-04T01:05:13.978Z,300
2023-09-04T01:20:13.954Z,300
2023-09-04T01:35:14.008Z,300
2023-09-04T01:50:13.955Z,300
2023-09-04T02:05:13.987Z,300
2023-09-04T02:20:13.988Z,299
2023-09-04T02:35:14.014Z,299
2023-09-04T02:50:14.010Z,299
2023-09-04T03:05:13.998Z,298
2023-09-04T03:20:13.979Z,300
2023-09-04T03:35:14.031Z,297
2023-09-04T03:50:14.036Z,298
2023-09-04T04:05:14.049Z,298
2023-09-04T04:20:14.103Z,298
2023-09-04T04:35:14.013Z,299
2023-09-04T04:50:14.037Z,297
2023-09-04T05:05:14.051Z,296
2023-09-04T05:20:14.023Z,297
2023-09-04T05:35:16.791Z,297
2023-09-04T05:50:14.040Z,297
2023-09-04T06:05:14.079Z,296
2023-09-04T06:20:13.998Z,298
2023-09-04T06:35:14.027Z,297
2023-09-04T06:50:14.028Z,295
2023-09-04T07:05:14.048Z,295
2023-09-04T07:20:14.051Z,294
2023-09-04T07:35:14.071Z,295
2023-09-04T07:50:14.067Z,293
2023-09-04T08:05:14.048Z,294
2023-09-04T08:20:14.037Z,295
2023-09-04T08:35:14.047Z,293
2023-09-04T08:50:14.076Z,295
2023-09-04T09:05:14.063Z,295
2023-09-04T09:20:36.634Z,294
2023-09-04T09:35:15.085Z,294
2023-09-04T09:50:14.086Z,293
2023-09-04T10:05:14.077Z,292
2023-09-04T10:20:14.069Z,294
2023-09-04T10:35:14.084Z,293
2023-09-04T10:50:15.096Z,293
2023-09-04T11:05:14.082Z,292
2023-09-04T11:20:14.072Z,293
2023-09-04T11:35:14.137Z,290
2023-09-04T11:50:14.114Z,292
2023-09-04T12:05:14.134Z,291
2023-09-04T12:20:14.111Z,291
2023-09-04T12:35:14.117Z,290
2023-09-04T12:50:14.097Z,290
2023-09-04T13:05:14.124Z,292
2023-09-04T13:20:14.121Z,290
2023-09-04T13:35:14.110Z,290
2023-09-04T13:50:14.117Z,290
2023-09-04T14:05:14.127Z,289
2023-09-04T14:20:14.069Z,289
2023-09-04T14:35:14.123Z,290
2023-09-04T14:50:14.112Z,290
2023-09-04T15:05:14.131Z,289
2023-09-04T15:20:15.168Z,288
2023-09-04T15:35:14.082Z,289
2023-09-04T15:50:14.113Z,288
2023-09-04T16:05:14.337Z,288
2023-09-04T16:20:14.119Z,289
2023-09-04T16:35:14.244Z,288
2023-09-04T16:50:14.132Z,288
2023-09-04T17:05:14.086Z,289
2023-09-04T17:20:14.091Z,288
2023-09-04T17:35:14.109Z,288
2023-09-04T17:50:14.147Z,286
2023-09-04T18:35:27.847Z,287
2023-09-04T18:50:27.872Z,287
2023-09-04T19:05:27.849Z,287
2023-09-04T19:20:27.875Z,285
2023-09-04T19:35:27.868Z,285
2023-09-04T19:50:27.866Z,285
2023-09-04T20:05:27.866Z,285
2023-09-04T20:20:27.876Z,285
2023-09-04T20:35:27.871Z,284
2023-09-04T20:50:27.895Z,284
2023-09-04T21:05:27.898Z,285
2023-09-04T21:20:27.866Z,282
2023-09-04T21:35:27.864Z,283
2023-09-04T21:50:27.904Z,283
2023-09-04T22:05:27.882Z,284
2023-09-04T22:20:27.880Z,283
2023-09-04T22:35:27.901Z,281
2023-09-04T22:50:27.909Z,281
2023-09-04T23:05:27.862Z,282
2023-09-04T23:20:27.863Z,282
2023-09-04T23:35:27.903Z,280
2023-09-04T23:50:27.877Z,279
